Terminal Aerodrome Forecast
Issued by NWS St Louis, MO

Home | Current Version | Previous Version | Text Only | Print | Product List | Glossary On
Versions: 1 2 3 4 5 6 7 8 9 10 11 12 13 14 15 16 17 18 19 20 21 22 23 24 25 26 27 28 29 30
000
FTUS43 KLSX 272200 AAB
TAFSTL
TAF AMD
KSTL 272200Z 2722/2824 15010KT 6SM -TSRA BKN035CB OVC100
      TEMPO 2722/2723 VRB15G35KT 2SM TSRA OVC020CB
     FM280100 04005KT P6SM BKN250
     FM280800 11005KT P6SM SCT100
      TEMPO 2808/2812 4SM BR
     FM281700 15006KT P6SM SCT040=

USA.gov is the U.S. government's official web portal to all federal, state and local government web resources and services.